createdAt,value
2022-10-05T00:00:15.351Z,14.20
2022-10-05T00:02:42.967Z,16.05
2022-10-05T00:05:18.845Z,15.77
2022-10-05T00:07:48.007Z,11.25
2022-10-05T00:10:17.454Z,16.08
2022-10-05T00:12:45.485Z,11.55
2022-10-05T00:15:13.805Z,11.48
2022-10-05T00:17:42.368Z,12.40
2022-10-05T00:20:16.397Z,14.18
2022-10-05T00:22:43.931Z,10.65
2022-10-05T00:25:14.259Z,15.80
2022-10-05T00:27:41.942Z,12.05
2022-10-05T00:30:14.326Z,11.30
2022-10-05T00:32:42.253Z,18.55
2022-10-05T00:35:10.151Z,12.65
2022-10-05T00:37:37.849Z,15.70
2022-10-05T00:40:08.472Z,11.05
2022-10-05T00:42:44.970Z,10.30
2022-10-05T00:45:14.330Z,11.93
2022-10-05T00:47:47.379Z,9.98
2022-10-05T00:50:25.285Z,14.32
2022-10-05T00:52:55.346Z,10.02
2022-10-05T00:55:29.751Z,10.45
2022-10-05T00:58:03.909Z,13.20
2022-10-05T01:00:31.828Z,12.68
2022-10-05T01:03:01.492Z,16.50
2022-10-05T01:05:35.342Z,16.02
2022-10-05T01:08:09.611Z,11.38
2022-10-05T01:10:39.515Z,10.38
2022-10-05T01:13:10.422Z,14.13
2022-10-05T01:15:40.437Z,13.40
2022-10-05T01:18:10.668Z,8.98
2022-10-05T01:20:43.053Z,11.63
2022-10-05T01:23:44.118Z,9.60
2022-10-05T01:26:20.498Z,9.73
2022-10-05T01:28:53.459Z,16.88
2022-10-05T01:31:26.764Z,15.13
2022-10-05T01:33:58.086Z,9.95
2022-10-05T01:36:29.788Z,12.68
2022-10-05T01:39:01.095Z,11.23
2022-10-05T01:41:33.165Z,9.70
2022-10-05T01:44:04.313Z,11.45
2022-10-05T01:46:35.101Z,10.95
2022-10-05T01:49:12.918Z,13.70
2022-10-05T01:51:44.513Z,14.02
2022-10-05T01:54:18.503Z,12.13
2022-10-05T01:56:50.887Z,11.73
2022-10-05T01:59:26.250Z,11.38
2022-10-05T02:01:57.609Z,16.35
2022-10-05T02:04:59.758Z,12.23
2022-10-05T02:07:18.076Z,12.10
2022-10-05T02:09:47.502Z,14.75
2022-10-05T02:12:17.659Z,17.92
2022-10-05T02:14:48.425Z,11.25
2022-10-05T02:17:18.501Z,11.52
2022-10-05T02:19:47.605Z,17.50
2022-10-05T02:22:17.348Z,14.10
2022-10-05T02:24:46.485Z,13.90
2022-10-05T02:27:16.635Z,14.85
2022-10-05T02:29:46.319Z,14.88
2022-10-05T02:32:16.434Z,10.60
2022-10-05T02:34:44.529Z,13.32
2022-10-05T02:37:19.446Z,17.30
2022-10-05T02:39:54.891Z,12.90
2022-10-05T02:42:25.230Z,14.07
2022-10-05T02:44:56.445Z,13.60
2022-10-05T02:47:29.651Z,17.20
2022-10-05T02:50:01.503Z,13.70
2022-10-05T02:52:32.437Z,18.00
2022-10-05T02:55:03.297Z,12.02
2022-10-05T02:57:35.373Z,14.95
2022-10-05T03:00:06.846Z,14.40
2022-10-05T03:02:40.514Z,16.48
2022-10-05T03:05:10.856Z,34.58
2022-10-05T03:07:42.586Z,23.83
2022-10-05T03:10:13.320Z,42.60
2022-10-05T03:12:45.657Z,25.90
2022-10-05T03:15:19.957Z,19.15
2022-10-05T03:17:54.141Z,23.17
2022-10-05T03:20:27.219Z,20.20
2022-10-05T03:22:56.666Z,36.67
2022-10-05T03:25:37.199Z,28.15
2022-10-05T03:28:10.611Z,11.55
2022-10-05T03:30:40.536Z,14.98
2022-10-05T03:33:13.770Z,14.20
2022-10-05T03:35:47.760Z,14.43
2022-10-05T03:38:17.467Z,21.67
2022-10-05T03:40:48.263Z,14.75
2022-10-05T03:43:33.724Z,24.52
2022-10-05T03:46:04.184Z,23.80
2022-10-05T03:48:37.225Z,15.52
2022-10-05T03:51:08.552Z,32.65
2022-10-05T03:53:40.477Z,65.55
2022-10-05T03:56:10.980Z,30.45
2022-10-05T03:58:40.572Z,16.58
2022-10-05T04:01:11.686Z,12.38
2022-10-05T04:03:42.582Z,9.95
2022-10-05T04:06:11.434Z,12.05
2022-10-05T04:08:45.385Z,11.80
2022-10-05T04:11:16.574Z,7.90
2022-10-05T04:13:50.684Z,16.88
2022-10-05T04:16:20.457Z,28.77
2022-10-05T04:18:52.014Z,15.07
2022-10-05T04:21:23.691Z,23.67
2022-10-05T04:23:54.593Z,24.23
2022-10-05T04:26:26.922Z,14.32
2022-10-05T04:28:57.072Z,15.20
2022-10-05T04:31:31.236Z,20.20
2022-10-05T04:34:02.815Z,19.05
2022-10-05T04:36:32.807Z,21.67
2022-10-05T04:39:06.131Z,17.95
2022-10-05T04:41:51.460Z,25.42
2022-10-05T04:44:35.686Z,27.90
2022-10-05T04:47:27.219Z,15.00
2022-10-05T04:50:18.180Z,14.13
2022-10-05T04:52:52.221Z,12.32
2022-10-05T04:55:23.405Z,27.85
2022-10-05T04:57:55.293Z,18.60
2022-10-05T05:00:24.428Z,17.58
2022-10-05T05:03:09.163Z,31.33
2022-10-05T05:06:05.136Z,20.23
2022-10-05T05:08:41.240Z,32.65
2022-10-05T05:11:22.335Z,20.08
2022-10-05T05:13:59.769Z,33.15
2022-10-05T05:16:32.912Z,22.02
2022-10-05T05:19:10.342Z,21.30
2022-10-05T05:21:43.236Z,13.23
2022-10-05T05:24:16.499Z,54.95
2022-10-05T05:26:55.573Z,54.53
2022-10-05T05:29:27.965Z,26.13
2022-10-05T05:31:59.252Z,20.77
2022-10-05T05:34:43.039Z,18.77
2022-10-05T05:37:15.519Z,19.25
2022-10-05T05:39:44.993Z,20.23
2022-10-05T05:42:20.630Z,17.67
2022-10-05T05:44:50.431Z,19.98
2022-10-05T05:47:20.843Z,12.93
2022-10-05T05:49:55.301Z,14.20
2022-10-05T05:52:26.646Z,21.73
2022-10-05T05:54:58.057Z,15.57
2022-10-05T05:57:31.044Z,17.40
2022-10-05T06:00:03.925Z,24.42
2022-10-05T06:02:35.460Z,31.20
2022-10-05T06:05:09.061Z,16.48
2022-10-05T06:07:38.951Z,24.33
2022-10-05T06:10:12.623Z,18.02
2022-10-05T06:12:42.608Z,24.95
2022-10-05T06:15:17.374Z,20.63
2022-10-05T06:17:46.781Z,31.23
2022-10-05T06:20:19.906Z,18.55
2022-10-05T06:22:50.730Z,25.40
2022-10-05T06:25:26.767Z,34.20
2022-10-05T06:28:04.618Z,27.92
2022-10-05T06:30:35.916Z,22.33
2022-10-05T06:33:09.854Z,22.33
2022-10-05T06:35:47.294Z,26.13
2022-10-05T06:38:29.640Z,21.38
2022-10-05T06:41:00.735Z,35.40
2022-10-05T06:43:36.523Z,16.45
2022-10-05T06:46:07.862Z,22.25
2022-10-05T06:48:42.712Z,19.17
2022-10-05T06:51:12.884Z,20.52
2022-10-05T06:53:45.078Z,16.02
2022-10-05T06:56:17.298Z,13.00
2022-10-05T06:58:51.189Z,12.63
2022-10-05T07:01:26.624Z,19.15
2022-10-05T07:04:04.515Z,44.05
2022-10-05T07:06:35.200Z,41.97
2022-10-05T07:09:17.995Z,28.83
2022-10-05T07:11:59.662Z,26.90
2022-10-05T07:14:36.806Z,35.47
2022-10-05T07:17:11.236Z,88.80
2022-10-05T07:19:42.263Z,67.65
2022-10-05T07:22:25.524Z,57.75
2022-10-05T07:24:58.578Z,30.67
2022-10-05T07:27:33.131Z,16.52
2022-10-05T07:30:02.532Z,17.15
2022-10-05T07:32:34.847Z,16.73
2022-10-05T07:35:05.065Z,19.38
2022-10-05T07:37:53.944Z,19.58
2022-10-05T07:40:25.090Z,15.65
2022-10-05T07:42:59.974Z,20.02
2022-10-05T07:45:30.105Z,14.50
2022-10-05T07:47:58.495Z,17.67
2022-10-05T07:50:29.726Z,16.58
2022-10-05T07:52:58.829Z,12.85
2022-10-05T07:55:27.261Z,12.40
2022-10-05T07:58:13.141Z,11.85
2022-10-05T08:00:48.807Z,12.45
2022-10-05T08:03:22.422Z,13.07
2022-10-05T08:05:49.996Z,14.52
2022-10-05T08:08:22.677Z,11.57
2022-10-05T08:10:53.122Z,11.20
2022-10-05T08:13:24.941Z,11.40
2022-10-05T08:15:57.434Z,13.35
2022-10-05T08:18:38.914Z,12.73
2022-10-05T08:21:12.046Z,12.27
2022-10-05T08:23:43.705Z,11.82
2022-10-05T08:26:16.271Z,10.10
2022-10-05T08:28:51.701Z,10.48
2022-10-05T08:31:21.591Z,9.05
2022-10-05T08:33:54.975Z,8.43
2022-10-05T08:36:25.125Z,8.13
2022-10-05T08:38:56.994Z,8.35
2022-10-05T08:41:45.826Z,7.85
2022-10-05T08:44:43.948Z,9.82
2022-10-05T08:47:22.773Z,8.50
2022-10-05T08:50:14.301Z,10.32
2022-10-05T08:52:47.122Z,10.15
2022-10-05T08:55:24.091Z,11.00
2022-10-05T08:58:08.923Z,7.95
2022-10-05T09:00:42.631Z,7.53
2022-10-05T09:03:34.358Z,7.65
2022-10-05T09:06:20.661Z,8.57
2022-10-05T09:08:52.987Z,7.53
2022-10-05T09:11:22.757Z,6.90
2022-10-05T09:14:09.129Z,10.60
2022-10-05T09:16:45.979Z,10.77
2022-10-05T09:19:35.250Z,9.50
2022-10-05T09:22:10.233Z,5.50
2022-10-05T09:24:49.115Z,10.88
2022-10-05T09:27:17.695Z,4.80
2022-10-05T09:30:03.895Z,7.10
2022-10-05T09:32:53.085Z,7.50
2022-10-05T09:35:29.842Z,8.23
2022-10-05T09:38:17.210Z,4.93
2022-10-05T09:41:01.815Z,4.97
2022-10-05T09:43:48.058Z,7.20
2022-10-05T09:46:29.180Z,7.50
2022-10-05T09:49:10.184Z,5.47
2022-10-05T09:51:50.246Z,4.32
2022-10-05T09:54:28.832Z,4.78
2022-10-05T09:57:08.091Z,5.18
2022-10-05T09:59:59.655Z,6.90
2022-10-05T10:02:36.479Z,7.47
2022-10-05T10:05:20.180Z,4.55
2022-10-05T10:08:05.763Z,4.43
2022-10-05T10:10:44.396Z,4.63
2022-10-05T10:13:25.455Z,3.85
2022-10-05T10:16:09.838Z,3.70
2022-10-05T10:18:45.862Z,6.20
2022-10-05T10:21:30.153Z,3.70
2022-10-05T10:24:06.466Z,4.05
2022-10-05T10:27:06.971Z,4.28
2022-10-05T10:29:38.394Z,6.05
2022-10-05T10:32:13.249Z,4.75
2022-10-05T10:34:53.115Z,8.50
2022-10-05T10:37:34.701Z,4.70
2022-10-05T10:40:13.700Z,3.63
2022-10-05T10:42:46.384Z,2.90
2022-10-05T10:45:21.130Z,2.83
2022-10-05T10:47:53.066Z,2.90
2022-10-05T10:50:34.202Z,2.75
2022-10-05T10:53:18.024Z,3.15
2022-10-05T10:55:50.165Z,3.05
2022-10-05T10:58:36.389Z,2.78
2022-10-05T11:01:10.900Z,3.08
2022-10-05T11:03:57.704Z,2.38
2022-10-05T11:06:35.581Z,4.35
2022-10-05T11:09:25.564Z,5.00
2022-10-05T11:12:06.455Z,2.50
2022-10-05T11:14:43.249Z,5.15
2022-10-05T11:17:31.795Z,2.35
2022-10-05T11:20:09.294Z,3.40
2022-10-05T11:22:45.206Z,3.42
2022-10-05T11:25:26.014Z,2.00
2022-10-05T11:28:14.324Z,2.05
2022-10-05T11:30:58.995Z,2.05
2022-10-05T11:33:34.825Z,2.25
2022-10-05T11:36:19.421Z,3.92
2022-10-05T11:38:57.296Z,4.47
2022-10-05T11:41:45.625Z,4.72
2022-10-05T11:44:23.598Z,2.35
2022-10-05T11:46:56.058Z,2.00
2022-10-05T11:49:30.878Z,7.85
2022-10-05T11:52:07.868Z,3.38
2022-10-05T11:55:05.950Z,1.95
2022-10-05T11:57:32.871Z,1.90
2022-10-05T12:00:07.096Z,2.75
2022-10-05T12:02:48.698Z,3.22
2022-10-05T12:05:21.219Z,1.83
2022-10-05T12:07:58.374Z,3.50
2022-10-05T12:10:32.743Z,1.95
2022-10-05T12:13:11.984Z,2.30
2022-10-05T12:15:46.081Z,2.05
2022-10-05T12:18:18.541Z,3.58
2022-10-05T12:20:48.762Z,2.25
2022-10-05T12:23:21.041Z,1.98
2022-10-05T12:25:52.437Z,2.05
2022-10-05T12:28:23.400Z,2.28
2022-10-05T12:31:08.884Z,2.30
2022-10-05T12:33:42.673Z,2.78
2022-10-05T12:36:12.855Z,4.70
2022-10-05T12:38:44.210Z,2.00
2022-10-05T12:41:14.545Z,2.65
2022-10-05T12:43:48.767Z,2.10
2022-10-05T12:46:19.917Z,2.40
2022-10-05T12:48:56.266Z,4.53
2022-10-05T12:51:30.298Z,2.08
2022-10-05T12:54:02.467Z,1.98
2022-10-05T12:56:35.723Z,3.10
2022-10-05T12:59:05.927Z,1.95
2022-10-05T13:01:37.018Z,4.78
2022-10-05T13:04:10.298Z,2.22
2022-10-05T13:06:41.892Z,2.05
2022-10-05T13:09:14.038Z,2.92
2022-10-05T13:11:45.532Z,3.92
2022-10-05T13:14:18.565Z,3.10
2022-10-05T13:16:54.810Z,2.30
2022-10-05T13:19:29.895Z,4.47
2022-10-05T13:22:18.538Z,3.45
2022-10-05T13:24:52.438Z,2.42
2022-10-05T13:27:22.236Z,1.80
2022-10-05T13:29:54.490Z,3.80
2022-10-05T13:32:23.707Z,2.35
2022-10-05T13:34:55.639Z,1.80
2022-10-05T13:37:31.994Z,9.85
2022-10-05T13:40:06.283Z,2.50
2022-10-05T13:42:35.558Z,2.25
2022-10-05T13:45:11.567Z,3.35
2022-10-05T13:47:44.383Z,1.58
2022-10-05T13:50:18.325Z,1.67
2022-10-05T13:52:53.257Z,5.10
2022-10-05T13:55:30.358Z,4.32
2022-10-05T13:58:03.721Z,2.38
2022-10-05T14:00:31.601Z,1.42
2022-10-05T14:03:00.701Z,1.60
2022-10-05T14:05:30.435Z,2.20
2022-10-05T14:07:59.125Z,1.45
2022-10-05T14:10:31.372Z,1.30
2022-10-05T14:12:59.249Z,1.00
2022-10-05T14:15:30.485Z,1.20
2022-10-05T14:17:58.101Z,1.40
2022-10-05T14:20:26.574Z,1.00
2022-10-05T14:22:58.450Z,1.20
2022-10-05T14:25:26.346Z,1.33
2022-10-05T14:28:01.040Z,1.17
2022-10-05T14:30:29.988Z,2.25
2022-10-05T14:33:07.273Z,2.78
2022-10-05T14:35:45.742Z,1.42
2022-10-05T14:38:19.591Z,1.27
2022-10-05T14:40:47.214Z,2.60
2022-10-05T14:43:19.468Z,2.05
2022-10-05T14:45:54.008Z,1.30
2022-10-05T14:48:22.114Z,2.55
2022-10-05T14:50:52.710Z,1.65
2022-10-05T14:53:22.309Z,1.45
2022-10-05T14:55:55.738Z,1.40
2022-10-05T14:58:35.223Z,1.55
2022-10-05T15:01:04.929Z,1.58
2022-10-05T15:03:42.212Z,1.45
2022-10-05T15:06:14.083Z,1.40
2022-10-05T15:08:48.218Z,2.80
2022-10-05T15:11:23.493Z,4.55
2022-10-05T15:13:51.252Z,1.48
2022-10-05T15:16:20.386Z,1.50
2022-10-05T15:18:55.325Z,1.60
2022-10-05T15:21:35.962Z,1.52
2022-10-05T15:24:07.417Z,2.20
2022-10-05T15:26:47.626Z,3.53
2022-10-05T15:29:35.337Z,1.80
2022-10-05T15:32:04.850Z,1.50
2022-10-05T15:34:37.037Z,2.50
2022-10-05T15:37:11.713Z,2.42
2022-10-05T15:39:45.225Z,3.33
2022-10-05T15:42:15.232Z,4.45
2022-10-05T15:44:52.116Z,2.10
2022-10-05T15:47:21.866Z,4.45
2022-10-05T15:49:57.231Z,2.00
2022-10-05T15:52:26.896Z,2.03
2022-10-05T15:55:07.392Z,4.05
2022-10-05T15:57:38.036Z,1.80
2022-10-05T16:00:10.307Z,3.80
2022-10-05T16:02:41.155Z,5.93
2022-10-05T16:05:17.838Z,5.38
2022-10-05T16:08:07.815Z,5.40
2022-10-05T16:10:39.420Z,8.13
2022-10-05T16:13:15.275Z,4.47
2022-10-05T16:15:48.930Z,2.53
2022-10-05T16:18:32.468Z,12.02
2022-10-05T16:21:04.914Z,6.35
2022-10-05T16:23:36.756Z,7.20
2022-10-05T16:26:15.888Z,4.05
2022-10-05T16:28:49.880Z,5.93
2022-10-05T16:31:20.056Z,6.38
2022-10-05T16:33:54.444Z,3.00
2022-10-05T16:36:31.400Z,6.70
2022-10-05T16:39:02.609Z,6.47
2022-10-05T16:41:35.178Z,8.38
2022-10-05T16:44:08.119Z,6.82
2022-10-05T16:46:39.293Z,3.35
2022-10-05T16:49:11.212Z,4.90
2022-10-05T16:51:45.850Z,2.72
2022-10-05T16:54:19.438Z,4.82
2022-10-05T16:56:51.231Z,7.82
2022-10-05T16:59:38.090Z,2.70
2022-10-05T17:02:09.005Z,2.90
2022-10-05T17:04:41.667Z,4.50
2022-10-05T17:07:21.198Z,4.95
2022-10-05T17:09:55.864Z,8.88
2022-10-05T17:12:31.158Z,4.75
2022-10-05T17:15:08.929Z,4.57
2022-10-05T17:17:39.538Z,6.53
2022-10-05T17:20:17.505Z,2.55
2022-10-05T17:22:51.097Z,9.48
2022-10-05T17:25:25.120Z,8.15
2022-10-05T17:27:55.011Z,5.03
2022-10-05T17:30:41.980Z,8.73
2022-10-05T17:33:19.450Z,12.18
2022-10-05T17:35:55.433Z,5.85
2022-10-05T17:38:24.111Z,8.00
2022-10-05T17:41:25.312Z,5.78
2022-10-05T17:44:11.830Z,10.27
2022-10-05T17:46:45.589Z,6.80
2022-10-05T17:49:20.799Z,8.73
2022-10-05T17:52:16.618Z,3.80
2022-10-05T17:55:27.906Z,3.92
2022-10-05T17:57:58.680Z,3.15
2022-10-05T18:00:34.026Z,2.90
2022-10-05T18:03:23.115Z,4.70
2022-10-05T18:06:19.019Z,8.45
2022-10-05T18:08:55.479Z,3.58
2022-10-05T18:11:37.702Z,3.92
2022-10-05T18:14:18.623Z,2.63
2022-10-05T18:17:04.003Z,4.50
2022-10-05T18:19:33.322Z,4.78
2022-10-05T18:22:03.532Z,4.30
2022-10-05T18:24:53.051Z,7.75
2022-10-05T18:27:31.879Z,2.83
2022-10-05T18:30:06.386Z,5.93
2022-10-05T18:32:40.613Z,2.60
2022-10-05T18:35:14.569Z,11.40
2022-10-05T18:37:47.915Z,5.68
2022-10-05T18:40:27.636Z,7.22
2022-10-05T18:42:59.674Z,5.07
2022-10-05T18:45:33.449Z,4.78
2022-10-05T18:48:07.821Z,7.28
2022-10-05T18:50:42.685Z,3.40
2022-10-05T18:53:16.321Z,4.32
2022-10-05T18:55:46.355Z,4.65
2022-10-05T18:58:18.062Z,3.83
2022-10-05T19:01:00.218Z,7.00
2022-10-05T19:03:31.904Z,5.80
2022-10-05T19:06:10.809Z,4.40
2022-10-05T19:08:45.795Z,6.03
2022-10-05T19:11:19.115Z,6.05
2022-10-05T19:13:50.984Z,6.45
2022-10-05T19:16:27.120Z,8.85
2022-10-05T19:19:09.554Z,8.98
2022-10-05T19:21:42.400Z,4.43
2022-10-05T19:24:23.807Z,4.45
2022-10-05T19:27:00.323Z,6.93
2022-10-05T19:29:36.596Z,5.65
2022-10-05T19:32:05.513Z,7.78
2022-10-05T19:34:39.313Z,10.68
2022-10-05T19:37:10.441Z,6.00
2022-10-05T19:39:41.323Z,9.75
2022-10-05T19:42:17.561Z,11.27
2022-10-05T19:44:52.427Z,10.23
2022-10-05T19:47:26.349Z,9.82
2022-10-05T19:50:02.867Z,12.10
2022-10-05T19:52:39.551Z,9.90
2022-10-05T19:55:13.091Z,10.05
2022-10-05T19:57:47.284Z,13.40
2022-10-05T20:00:20.911Z,10.77
2022-10-05T20:02:50.993Z,8.88
2022-10-05T20:05:18.966Z,13.77
2022-10-05T20:07:48.268Z,11.88
2022-10-05T20:10:21.519Z,11.80
2022-10-05T20:12:50.620Z,9.57
2022-10-05T20:15:37.333Z,8.57
2022-10-05T20:18:41.690Z,7.03
2022-10-05T20:21:25.354Z,12.90
2022-10-05T20:24:07.824Z,13.23
2022-10-05T20:26:58.341Z,10.60
2022-10-05T20:29:25.992Z,9.77
2022-10-05T20:31:53.704Z,12.55
2022-10-05T20:34:22.148Z,12.23
2022-10-05T20:36:50.085Z,13.90
2022-10-05T20:39:18.388Z,18.38
2022-10-05T20:41:47.635Z,11.20
2022-10-05T20:44:15.225Z,9.57
2022-10-05T20:46:42.952Z,9.40
2022-10-05T20:49:11.707Z,11.13
2022-10-05T20:51:40.199Z,10.45
2022-10-05T20:54:08.849Z,13.55
2022-10-05T20:56:36.754Z,9.20
2022-10-05T20:59:06.199Z,13.15
2022-10-05T21:01:34.279Z,9.60
2022-10-05T21:04:06.828Z,9.45
2022-10-05T21:06:34.487Z,11.90
2022-10-05T21:09:02.312Z,10.43
2022-10-05T21:11:30.171Z,11.95
2022-10-05T21:14:00.924Z,10.88
2022-10-05T21:16:38.193Z,10.38
2022-10-05T21:19:09.088Z,7.07
2022-10-05T21:21:36.825Z,9.45
2022-10-05T21:24:04.606Z,15.82
2022-10-05T21:26:32.435Z,8.27
2022-10-05T21:29:00.866Z,10.20
2022-10-05T21:31:29.168Z,9.77
2022-10-05T21:33:58.327Z,9.27
2022-10-05T21:36:25.966Z,7.63
2022-10-05T21:38:54.410Z,14.18
2022-10-05T21:41:22.164Z,11.20
2022-10-05T21:43:49.997Z,8.40
2022-10-05T21:46:18.467Z,6.63
2022-10-05T21:48:46.086Z,10.80
2022-10-05T21:51:16.582Z,9.10
2022-10-05T21:53:47.019Z,8.45
2022-10-05T21:56:17.272Z,9.38
2022-10-05T21:58:45.608Z,8.82
2022-10-05T22:01:13.468Z,6.82
2022-10-05T22:03:41.565Z,6.90
2022-10-05T22:06:12.368Z,9.65
2022-10-05T22:08:41.430Z,9.02
2022-10-05T22:11:12.630Z,6.35
2022-10-05T22:13:41.925Z,7.75
2022-10-05T22:16:09.766Z,8.98
2022-10-05T22:18:37.392Z,10.43
2022-10-05T22:21:05.517Z,11.88
2022-10-05T22:23:35.687Z,10.35
2022-10-05T22:26:05.091Z,10.93
2022-10-05T22:28:33.709Z,8.25
2022-10-05T22:31:03.098Z,5.50
2022-10-05T22:33:30.665Z,8.48
2022-10-05T22:35:58.948Z,9.60
2022-10-05T22:38:27.286Z,9.63
2022-10-05T22:40:55.055Z,12.02
2022-10-05T22:43:24.109Z,14.40
2022-10-05T22:45:51.820Z,11.85
2022-10-05T22:48:19.368Z,15.93
2022-10-05T22:50:47.016Z,6.32
2022-10-05T22:53:14.533Z,11.65
2022-10-05T22:55:42.334Z,11.23
2022-10-05T22:58:10.068Z,14.52
2022-10-05T23:00:57.583Z,12.57
2022-10-05T23:03:26.451Z,8.25
2022-10-05T23:05:57.233Z,7.30
2022-10-05T23:08:25.138Z,14.00
2022-10-05T23:10:55.964Z,7.80
2022-10-05T23:13:23.522Z,9.18
2022-10-05T23:15:52.635Z,6.22
2022-10-05T23:18:20.219Z,6.50
2022-10-05T23:20:53.437Z,11.80
2022-10-05T23:23:24.968Z,6.03
2022-10-05T23:25:53.205Z,6.13
2022-10-05T23:28:20.805Z,5.25
2022-10-05T23:30:48.433Z,3.90
2022-10-05T23:33:17.563Z,5.47
2022-10-05T23:35:45.171Z,10.20
2022-10-05T23:38:12.663Z,9.77
2022-10-05T23:40:40.334Z,7.78
2022-10-05T23:43:08.194Z,5.03
2022-10-05T23:45:36.932Z,5.72
2022-10-05T23:48:04.530Z,6.60
2022-10-05T23:50:34.103Z,11.35
2022-10-05T23:53:01.702Z,5.38
2022-10-05T23:55:29.315Z,11.45
2022-10-05T23:57:56.854Z,8.88
